sensor_id;sensor_type;location;lat;lon;timestamp;pressure;altitude;pressure_sealevel;temperature;humidity
44079;BME280;29744;49.078;12.878;2022-12-18T00:03:44;97563.34;;;15.20;32.98
44079;BME280;29744;49.078;12.878;2022-12-18T00:08:45;97571.25;;;15.16;32.94
44079;BME280;29744;49.078;12.878;2022-12-18T00:13:46;97570.56;;;15.10;32.90
44079;BME280;29744;49.078;12.878;2022-12-18T00:18:51;97586.56;;;15.07;32.99
44079;BME280;29744;49.078;12.878;2022-12-18T00:23:52;97582.84;;;15.03;33.08
44079;BME280;29744;49.078;12.878;2022-12-18T00:28:53;97589.94;;;14.99;33.49
44079;BME280;29744;49.078;12.878;2022-12-18T00:33:56;97592.41;;;14.95;33.01
44079;BME280;29744;49.078;12.878;2022-12-18T00:38:58;97599.53;;;14.91;33.09
44079;BME280;29744;49.078;12.878;2022-12-18T00:43:59;97598.81;;;14.86;33.16
44079;BME280;29744;49.078;12.878;2022-12-18T00:48:59;97602.09;;;14.82;33.48
44079;BME280;29744;49.078;12.878;2022-12-18T00:54:00;97606.50;;;14.78;33.51
44079;BME280;29744;49.078;12.878;2022-12-18T00:59:00;97602.78;;;14.74;33.40
44079;BME280;29744;49.078;12.878;2022-12-18T01:04:02;97597.97;;;14.71;33.60
44079;BME280;29744;49.078;12.878;2022-12-18T01:09:03;97599.66;;;14.67;33.44
44079;BME280;29744;49.078;12.878;2022-12-18T01:14:03;97601.34;;;14.63;33.89
44079;BME280;29744;49.078;12.878;2022-12-18T01:19:04;97613.84;;;14.59;33.32
44079;BME280;29744;49.078;12.878;2022-12-18T01:24:04;97621.44;;;14.57;33.73
44079;BME280;29744;49.078;12.878;2022-12-18T01:29:05;97612.63;;;14.52;33.68
44079;BME280;29744;49.078;12.878;2022-12-18T01:34:05;97619.41;;;14.49;33.81
44079;BME280;29744;49.078;12.878;2022-12-18T01:39:10;97614.59;;;14.46;33.90
44079;BME280;29744;49.078;12.878;2022-12-18T01:49:48;97630.66;;;14.37;33.80
44079;BME280;29744;49.078;12.878;2022-12-18T01:54:50;97640.94;;;14.35;33.87
44079;BME280;29744;49.078;12.878;2022-12-18T01:59:53;97638.03;;;14.32;33.91
44079;BME280;29744;49.078;12.878;2022-12-18T02:04:54;97630.53;;;14.29;33.87
44079;BME280;29744;49.078;12.878;2022-12-18T02:15:09;97633.59;;;14.22;33.96
44079;BME280;29744;49.078;12.878;2022-12-18T02:20:28;97630.63;;;14.18;34.26
44079;BME280;29744;49.078;12.878;2022-12-18T02:30:37;97620.72;;;14.14;34.08
44079;BME280;29744;49.078;12.878;2022-12-18T02:35:40;97625.59;;;14.12;34.17
44079;BME280;29744;49.078;12.878;2022-12-18T02:40:42;97631.28;;;14.10;34.07
44079;BME280;29744;49.078;12.878;2022-12-18T02:45:56;97630.28;;;14.06;33.92
44079;BME280;29744;49.078;12.878;2022-12-18T02:51:07;97647.03;;;14.03;33.96
44079;BME280;29744;49.078;12.878;2022-12-18T02:56:20;97643.03;;;14.01;34.42
44079;BME280;29744;49.078;12.878;2022-12-18T03:01:28;97639.81;;;13.99;34.60
44079;BME280;29744;49.078;12.878;2022-12-18T03:06:35;97647.69;;;13.95;34.11
44079;BME280;29744;49.078;12.878;2022-12-18T03:11:40;97650.69;;;13.94;34.15
44079;BME280;29744;49.078;12.878;2022-12-18T03:17:03;97651.25;;;13.91;34.11
44079;BME280;29744;49.078;12.878;2022-12-18T03:22:04;97661.53;;;13.89;34.50
44079;BME280;29744;49.078;12.878;2022-12-18T03:27:11;97647.53;;;13.86;34.36
44079;BME280;29744;49.078;12.878;2022-12-18T03:32:23;97651.59;;;13.84;34.38
44079;BME280;29744;49.078;12.878;2022-12-18T03:37:26;97646.78;;;13.81;34.38
44079;BME280;29744;49.078;12.878;2022-12-18T03:42:37;97642.75;;;13.78;34.20
44079;BME280;29744;49.078;12.878;2022-12-18T03:48:02;97636.84;;;13.76;34.62
44079;BME280;29744;49.078;12.878;2022-12-18T03:58:42;97656.06;;;13.70;34.36
44079;BME280;29744;49.078;12.878;2022-12-18T04:03:46;97655.28;;;13.69;34.29
44079;BME280;29744;49.078;12.878;2022-12-18T04:08:49;97658.25;;;13.68;34.35
44079;BME280;29744;49.078;12.878;2022-12-18T04:13:50;97669.31;;;13.66;34.90
44079;BME280;29744;49.078;12.878;2022-12-18T04:18:50;97668.81;;;13.64;34.63
44079;BME280;29744;49.078;12.878;2022-12-18T04:23:50;97677.47;;;13.61;34.67
44079;BME280;29744;49.078;12.878;2022-12-18T04:28:51;97688.53;;;13.60;34.54
44079;BME280;29744;49.078;12.878;2022-12-18T04:33:51;97696.09;;;13.58;34.82
44079;BME280;29744;49.078;12.878;2022-12-18T04:38:51;97705.28;;;13.57;34.57
44079;BME280;29744;49.078;12.878;2022-12-18T04:43:52;97704.47;;;13.56;34.83
44079;BME280;29744;49.078;12.878;2022-12-18T04:48:52;97714.16;;;13.57;34.28
44079;BME280;29744;49.078;12.878;2022-12-18T04:53:53;97718.72;;;13.62;34.74
44079;BME280;29744;49.078;12.878;2022-12-18T04:58:53;97719.16;;;13.69;34.32
44079;BME280;29744;49.078;12.878;2022-12-18T05:03:54;97712.84;;;13.78;34.55
44079;BME280;29744;49.078;12.878;2022-12-18T05:08:54;97706.28;;;13.90;34.66
44079;BME280;29744;49.078;12.878;2022-12-18T05:13:54;97722.28;;;14.05;34.82
44079;BME280;29744;49.078;12.878;2022-12-18T05:18:55;97722.06;;;14.20;34.40
44079;BME280;29744;49.078;12.878;2022-12-18T05:23:55;97744.28;;;14.36;34.72
44079;BME280;29744;49.078;12.878;2022-12-18T05:28:56;97730.00;;;14.54;34.21
44079;BME280;29744;49.078;12.878;2022-12-18T05:33:57;97733.78;;;14.72;34.19
44079;BME280;29744;49.078;12.878;2022-12-18T05:38:57;97742.66;;;14.91;34.40
44079;BME280;29744;49.078;12.878;2022-12-18T05:43:58;97742.16;;;15.08;34.27
44079;BME280;29744;49.078;12.878;2022-12-18T05:48:59;97744.03;;;15.26;34.21
44079;BME280;29744;49.078;12.878;2022-12-18T05:54:01;97745.34;;;15.42;34.09
44079;BME280;29744;49.078;12.878;2022-12-18T05:59:01;97744.78;;;15.59;33.83
44079;BME280;29744;49.078;12.878;2022-12-18T06:04:01;97742.59;;;15.75;33.56
44079;BME280;29744;49.078;12.878;2022-12-18T06:09:02;97746.94;;;15.90;33.19
44079;BME280;29744;49.078;12.878;2022-12-18T06:14:08;97739.31;;;16.05;33.45
44079;BME280;29744;49.078;12.878;2022-12-18T06:19:14;97746.63;;;16.19;33.00
44079;BME280;29744;49.078;12.878;2022-12-18T06:24:15;97753.91;;;16.32;33.00
44079;BME280;29744;49.078;12.878;2022-12-18T06:29:15;97746.41;;;16.42;33.32
44079;BME280;29744;49.078;12.878;2022-12-18T06:34:15;97748.91;;;16.53;33.05
44079;BME280;29744;49.078;12.878;2022-12-18T06:39:16;97749.00;;;16.61;32.63
44079;BME280;29744;49.078;12.878;2022-12-18T06:44:16;97747.78;;;16.67;32.84
44079;BME280;29744;49.078;12.878;2022-12-18T06:49:16;97761.22;;;16.72;32.51
44079;BME280;29744;49.078;12.878;2022-12-18T06:54:17;97752.47;;;16.76;32.63
44079;BME280;29744;49.078;12.878;2022-12-18T06:59:17;97761.09;;;16.78;32.40
44079;BME280;29744;49.078;12.878;2022-12-18T07:04:17;97767.63;;;16.77;32.59
44079;BME280;29744;49.078;12.878;2022-12-18T07:09:18;97776.06;;;16.75;32.63
44079;BME280;29744;49.078;12.878;2022-12-18T07:14:18;97774.44;;;16.74;32.57
44079;BME280;29744;49.078;12.878;2022-12-18T07:19:18;97782.88;;;16.72;32.85
44079;BME280;29744;49.078;12.878;2022-12-18T07:24:19;97784.00;;;16.71;32.51
44079;BME280;29744;49.078;12.878;2022-12-18T07:29:19;97788.91;;;16.69;32.85
44079;BME280;29744;49.078;12.878;2022-12-18T07:34:19;97788.41;;;16.67;32.61
44079;BME280;29744;49.078;12.878;2022-12-18T07:39:20;97795.53;;;16.63;32.59
44079;BME280;29744;49.078;12.878;2022-12-18T07:44:20;97804.28;;;16.60;32.37
44079;BME280;29744;49.078;12.878;2022-12-18T07:49:20;97794.34;;;16.56;32.84
44079;BME280;29744;49.078;12.878;2022-12-18T07:54:24;97801.44;;;16.52;32.27
44079;BME280;29744;49.078;12.878;2022-12-18T07:59:24;97794.25;;;16.47;32.81
44079;BME280;29744;49.078;12.878;2022-12-18T08:04:25;97805.97;;;16.42;32.76
44079;BME280;29744;49.078;12.878;2022-12-18T08:09:25;97811.47;;;16.37;32.49
44079;BME280;29744;49.078;12.878;2022-12-18T08:14:26;97805.34;;;16.32;32.48
44079;BME280;29744;49.078;12.878;2022-12-18T08:19:26;97801.94;;;16.26;32.54
44079;BME280;29744;49.078;12.878;2022-12-18T08:24:26;97800.44;;;16.20;32.73
44079;BME280;29744;49.078;12.878;2022-12-18T08:29:26;97796.25;;;16.14;32.59
44079;BME280;29744;49.078;12.878;2022-12-18T08:34:27;97796.34;;;16.09;32.82
44079;BME280;29744;49.078;12.878;2022-12-18T08:39:27;97801.06;;;16.03;32.40
44079;BME280;29744;49.078;12.878;2022-12-18T08:44:27;97814.69;;;15.98;32.43
44079;BME280;29744;49.078;12.878;2022-12-18T08:49:37;97811.56;;;15.91;32.48
44079;BME280;29744;49.078;12.878;2022-12-18T08:54:37;97815.16;;;15.87;32.67
44079;BME280;29744;49.078;12.878;2022-12-18T08:59:38;97827.97;;;15.81;32.71
44079;BME280;29744;49.078;12.878;2022-12-18T09:04:38;97831.84;;;15.75;33.04
44079;BME280;29744;49.078;12.878;2022-12-18T09:09:39;97830.34;;;15.69;32.67
44079;BME280;29744;49.078;12.878;2022-12-18T09:14:40;97829.91;;;15.62;30.27
44079;BME280;29744;49.078;12.878;2022-12-18T09:19:40;97846.66;;;14.51;28.44
44079;BME280;29744;49.078;12.878;2022-12-18T09:24:40;97838.66;;;12.86;27.42
44079;BME280;29744;49.078;12.878;2022-12-18T09:29:41;97838.47;;;11.92;28.04
44079;BME280;29744;49.078;12.878;2022-12-18T09:34:41;97831.22;;;11.88;28.02
44079;BME280;29744;49.078;12.878;2022-12-18T09:39:41;97833.31;;;12.06;28.16
44079;BME280;29744;49.078;12.878;2022-12-18T09:44:45;97828.94;;;12.31;28.49
44079;BME280;29744;49.078;12.878;2022-12-18T09:49:53;97822.66;;;12.55;28.08
44079;BME280;29744;49.078;12.878;2022-12-18T09:55:01;97808.25;;;12.80;28.41
44079;BME280;29744;49.078;12.878;2022-12-18T10:00:15;97803.28;;;13.03;28.79
44079;BME280;29744;49.078;12.878;2022-12-18T10:10:48;97795.47;;;13.40;29.21
44079;BME280;29744;49.078;12.878;2022-12-18T10:16:09;97794.78;;;13.53;29.52
44079;BME280;29744;49.078;12.878;2022-12-18T10:21:16;97795.50;;;13.64;28.98
44079;BME280;29744;49.078;12.878;2022-12-18T10:26:19;97788.13;;;13.75;29.67
44079;BME280;29744;49.078;12.878;2022-12-18T10:31:22;97790.50;;;13.81;29.60
44079;BME280;29744;49.078;12.878;2022-12-18T10:36:24;97790.16;;;13.88;29.35
44079;BME280;29744;49.078;12.878;2022-12-18T10:41:26;97775.81;;;13.93;29.34
44079;BME280;29744;49.078;12.878;2022-12-18T10:46:27;97766.34;;;13.95;29.46
44079;BME280;29744;49.078;12.878;2022-12-18T10:51:29;97756.59;;;13.99;29.67
44079;BME280;29744;49.078;12.878;2022-12-18T10:56:33;97750.09;;;14.00;29.88
44079;BME280;29744;49.078;12.878;2022-12-18T11:01:53;97755.50;;;14.00;30.04
44079;BME280;29744;49.078;12.878;2022-12-18T11:07:00;97755.22;;;14.02;29.99
44079;BME280;29744;49.078;12.878;2022-12-18T11:12:15;97749.81;;;14.02;29.99
44079;BME280;29744;49.078;12.878;2022-12-18T11:17:30;97731.22;;;14.00;30.12
44079;BME280;29744;49.078;12.878;2022-12-18T11:22:33;97733.94;;;14.00;30.55
44079;BME280;29744;49.078;12.878;2022-12-18T11:27:35;97731.22;;;14.00;30.52
44079;BME280;29744;49.078;12.878;2022-12-18T11:37:41;97730.72;;;13.98;30.70
44079;BME280;29744;49.078;12.878;2022-12-18T11:42:50;97730.19;;;13.96;30.73
44079;BME280;29744;49.078;12.878;2022-12-18T11:47:59;97735.88;;;13.95;30.42
44079;BME280;29744;49.078;12.878;2022-12-18T11:53:01;97738.88;;;13.93;30.52
44079;BME280;29744;49.078;12.878;2022-12-18T12:03:19;97734.84;;;13.91;31.02
44079;BME280;29744;49.078;12.878;2022-12-18T12:08:36;97738.94;;;13.88;31.16
44079;BME280;29744;49.078;12.878;2022-12-18T12:30:20;97753.59;;;13.77;31.45
44079;BME280;29744;49.078;12.878;2022-12-18T12:40:30;97751.19;;;13.75;31.40
44079;BME280;29744;49.078;12.878;2022-12-18T12:45:38;97740.97;;;13.72;31.60
44079;BME280;29744;49.078;12.878;2022-12-18T12:50:41;97717.78;;;13.71;31.48
44079;BME280;29744;49.078;12.878;2022-12-18T12:55:42;97724.28;;;13.70;31.86
44079;BME280;29744;49.078;12.878;2022-12-18T13:01:11;97725.13;;;13.66;31.70
44079;BME280;29744;49.078;12.878;2022-12-18T13:06:28;97720.03;;;13.64;31.64
44079;BME280;29744;49.078;12.878;2022-12-18T13:11:37;97723.00;;;13.63;31.74
44079;BME280;29744;49.078;12.878;2022-12-18T13:17:29;97713.09;;;13.58;32.07
44079;BME280;29744;49.078;12.878;2022-12-18T13:22:40;97708.78;;;13.57;32.20
44079;BME280;29744;49.078;12.878;2022-12-18T13:27:51;97709.06;;;13.55;32.05
44079;BME280;29744;49.078;12.878;2022-12-18T13:38:34;97704.81;;;13.49;32.35
44079;BME280;29744;49.078;12.878;2022-12-18T13:43:41;97704.31;;;13.47;31.99
44079;BME280;29744;49.078;12.878;2022-12-18T13:48:52;97701.91;;;13.46;32.34
44079;BME280;29744;49.078;12.878;2022-12-18T13:54:13;97701.38;;;13.44;31.96
44079;BME280;29744;49.078;12.878;2022-12-18T14:04:34;97716.50;;;13.40;31.98
44079;BME280;29744;49.078;12.878;2022-12-18T14:09:37;97721.09;;;13.39;32.46
44079;BME280;29744;49.078;12.878;2022-12-18T14:14:45;97728.63;;;13.37;32.17
44079;BME280;29744;49.078;12.878;2022-12-18T14:19:51;97723.53;;;13.36;32.61
44079;BME280;29744;49.078;12.878;2022-12-18T14:25:10;97732.19;;;13.33;32.52
44079;BME280;29744;49.078;12.878;2022-12-18T14:30:27;97735.16;;;13.31;32.31
44079;BME280;29744;49.078;12.878;2022-12-18T14:35:27;97730.06;;;13.30;32.74
44079;BME280;29744;49.078;12.878;2022-12-18T14:40:28;97727.63;;;13.28;32.40
44079;BME280;29744;49.078;12.878;2022-12-18T14:50:41;97723.91;;;13.24;32.42
44079;BME280;29744;49.078;12.878;2022-12-18T14:55:48;97716.91;;;13.23;32.80
44079;BME280;29744;49.078;12.878;2022-12-18T15:00:49;97712.09;;;13.20;32.70
44079;BME280;29744;49.078;12.878;2022-12-18T15:05:50;97712.38;;;13.18;32.96
44079;BME280;29744;49.078;12.878;2022-12-18T15:10:50;97705.66;;;13.16;32.93
44079;BME280;29744;49.078;12.878;2022-12-18T15:15:51;97699.47;;;13.15;32.60
44079;BME280;29744;49.078;12.878;2022-12-18T15:20:54;97704.34;;;13.13;33.06
44079;BME280;29744;49.078;12.878;2022-12-18T15:26:07;97689.56;;;13.11;33.17
44079;BME280;29744;49.078;12.878;2022-12-18T15:36:10;97691.19;;;13.07;32.75
44079;BME280;29744;49.078;12.878;2022-12-18T15:41:13;97705.75;;;13.06;33.09
44079;BME280;29744;49.078;12.878;2022-12-18T15:46:19;97711.72;;;13.03;32.80
44079;BME280;29744;49.078;12.878;2022-12-18T15:51:23;97721.97;;;13.01;33.31
44079;BME280;29744;49.078;12.878;2022-12-18T15:56:24;97703.69;;;12.98;33.21
44079;BME280;29744;49.078;12.878;2022-12-18T16:01:45;97701.25;;;12.96;33.18
44079;BME280;29744;49.078;12.878;2022-12-18T16:06:46;97696.16;;;12.95;33.28
44079;BME280;29744;49.078;12.878;2022-12-18T16:11:46;97711.50;;;12.94;32.74
44079;BME280;29744;49.078;12.878;2022-12-18T16:16:50;97711.78;;;12.92;33.03
44079;BME280;29744;49.078;12.878;2022-12-18T16:21:52;97710.47;;;12.90;33.28
44079;BME280;29744;49.078;12.878;2022-12-18T16:26:54;97712.34;;;12.89;33.19
44079;BME280;29744;49.078;12.878;2022-12-18T16:31:58;97709.16;;;12.87;33.09
44079;BME280;29744;49.078;12.878;2022-12-18T16:37:00;97709.41;;;12.86;33.64
44079;BME280;29744;49.078;12.878;2022-12-18T16:42:13;97719.38;;;12.85;33.34
44079;BME280;29744;49.078;12.878;2022-12-18T16:47:16;97716.19;;;12.83;33.55
44079;BME280;29744;49.078;12.878;2022-12-18T16:52:18;97718.88;;;12.83;33.69
44079;BME280;29744;49.078;12.878;2022-12-18T16:57:20;97739.31;;;12.84;33.71
44079;BME280;29744;49.078;12.878;2022-12-18T17:02:23;97732.56;;;12.87;33.08
44079;BME280;29744;49.078;12.878;2022-12-18T17:07:25;97728.75;;;12.93;33.31
44079;BME280;29744;49.078;12.878;2022-12-18T17:12:26;97716.28;;;13.02;33.34
44079;BME280;29744;49.078;12.878;2022-12-18T17:17:26;97714.84;;;13.15;33.12
44079;BME280;29744;49.078;12.878;2022-12-18T17:22:26;97718.47;;;13.29;33.74
44079;BME280;29744;49.078;12.878;2022-12-18T17:27:27;97701.09;;;13.45;33.38
44079;BME280;29744;49.078;12.878;2022-12-18T17:32:27;97705.75;;;13.64;33.17
44079;BME280;29744;49.078;12.878;2022-12-18T17:37:27;97708.81;;;13.81;33.10
44079;BME280;29744;49.078;12.878;2022-12-18T17:42:28;97715.84;;;14.01;33.39
44079;BME280;29744;49.078;12.878;2022-12-18T17:47:28;97711.28;;;14.20;33.06
44079;BME280;29744;49.078;12.878;2022-12-18T17:52:28;97707.53;;;14.40;33.07
44079;BME280;29744;49.078;12.878;2022-12-18T17:57:28;97696.72;;;14.59;33.07
44079;BME280;29744;49.078;12.878;2022-12-18T18:02:29;97702.91;;;14.78;32.97
44079;BME280;29744;49.078;12.878;2022-12-18T18:07:29;97696.66;;;14.96;32.50
44079;BME280;29744;49.078;12.878;2022-12-18T18:12:29;97695.34;;;15.12;32.49
44079;BME280;29744;49.078;12.878;2022-12-18T18:17:48;97692.56;;;15.31;32.47
44079;BME280;29744;49.078;12.878;2022-12-18T18:22:49;97695.00;;;15.46;32.49
44079;BME280;29744;49.078;12.878;2022-12-18T18:27:49;97687.41;;;15.62;32.18
44079;BME280;29744;49.078;12.878;2022-12-18T18:32:49;97683.59;;;15.77;32.16
44079;BME280;29744;49.078;12.878;2022-12-18T18:37:50;97670.09;;;15.91;32.02
44079;BME280;29744;49.078;12.878;2022-12-18T18:42:50;97677.38;;;16.04;32.37
44079;BME280;29744;49.078;12.878;2022-12-18T18:47:51;97696.59;;;16.16;31.67
44079;BME280;29744;49.078;12.878;2022-12-18T18:52:51;97692.25;;;16.29;31.68
44079;BME280;29744;49.078;12.878;2022-12-18T18:57:51;97695.53;;;16.39;31.58
44079;BME280;29744;49.078;12.878;2022-12-18T19:02:52;97690.72;;;16.50;31.94
44079;BME280;29744;49.078;12.878;2022-12-18T19:07:52;97683.81;;;16.58;31.43
44079;BME280;29744;49.078;12.878;2022-12-18T19:12:52;97693.91;;;16.66;31.43
44079;BME280;29744;49.078;12.878;2022-12-18T19:18:11;97690.78;;;16.72;31.63
44079;BME280;29744;49.078;12.878;2022-12-18T19:23:11;97684.75;;;16.76;31.17
44079;BME280;29744;49.078;12.878;2022-12-18T19:28:12;97686.84;;;16.79;31.32
44079;BME280;29744;49.078;12.878;2022-12-18T19:33:12;97681.91;;;16.81;31.40
44079;BME280;29744;49.078;12.878;2022-12-18T19:38:13;97683.22;;;16.83;30.96
44079;BME280;29744;49.078;12.878;2022-12-18T19:43:13;97666.94;;;16.83;31.41
44079;BME280;29744;49.078;12.878;2022-12-18T19:48:14;97666.94;;;16.83;31.03
44079;BME280;29744;49.078;12.878;2022-12-18T19:53:14;97669.66;;;16.83;31.14
44079;BME280;29744;49.078;12.878;2022-12-18T19:58:14;97669.97;;;16.82;31.23
44079;BME280;29744;49.078;12.878;2022-12-18T20:03:15;97659.44;;;16.80;31.40
44079;BME280;29744;49.078;12.878;2022-12-18T20:08:15;97663.25;;;16.79;31.08
44079;BME280;29744;49.078;12.878;2022-12-18T20:13:16;97648.44;;;16.77;31.06
44079;BME280;29744;49.078;12.878;2022-12-18T20:18:16;97643.31;;;16.75;30.99
44079;BME280;29744;49.078;12.878;2022-12-18T20:23:17;97656.84;;;16.75;31.10
44079;BME280;29744;49.078;12.878;2022-12-18T20:28:21;97652.25;;;16.76;31.06
44079;BME280;29744;49.078;12.878;2022-12-18T20:33:21;97650.34;;;16.76;31.11
44079;BME280;29744;49.078;12.878;2022-12-18T20:38:22;97653.03;;;16.76;31.44
44079;BME280;29744;49.078;12.878;2022-12-18T20:43:22;97661.97;;;16.77;30.88
44079;BME280;29744;49.078;12.878;2022-12-18T20:48:22;97661.97;;;16.77;31.31
44079;BME280;29744;49.078;12.878;2022-12-18T20:53:23;97663.06;;;16.76;30.88
44079;BME280;29744;49.078;12.878;2022-12-18T20:58:23;97659.56;;;16.75;31.34
44079;BME280;29744;49.078;12.878;2022-12-18T21:03:24;97658.59;;;16.71;31.27
44079;BME280;29744;49.078;12.878;2022-12-18T21:08:24;97671.13;;;16.67;31.54
44079;BME280;29744;49.078;12.878;2022-12-18T21:13:24;97676.06;;;16.65;31.48
44079;BME280;29744;49.078;12.878;2022-12-18T21:18:25;97664.25;;;16.61;31.33
44079;BME280;29744;49.078;12.878;2022-12-18T21:23:25;97674.41;;;16.55;31.26
44079;BME280;29744;49.078;12.878;2022-12-18T21:28:25;97679.91;;;16.50;31.11
44079;BME280;29744;49.078;12.878;2022-12-18T21:33:26;97682.72;;;16.45;31.21
44079;BME280;29744;49.078;12.878;2022-12-18T21:38:26;97686.63;;;16.39;31.41
44079;BME280;29744;49.078;12.878;2022-12-18T21:43:27;97686.75;;;16.34;31.13
44079;BME280;29744;49.078;12.878;2022-12-18T21:48:46;97665.81;;;16.26;31.66
44079;BME280;29744;49.078;12.878;2022-12-18T21:53:46;97654.59;;;16.19;31.45
44079;BME280;29744;49.078;12.878;2022-12-18T21:58:47;97644.69;;;16.14;31.28
44079;BME280;29744;49.078;12.878;2022-12-18T22:03:48;97647.81;;;16.07;31.96
44079;BME280;29744;49.078;12.878;2022-12-18T22:08:48;97640.41;;;15.99;31.48
44079;BME280;29744;49.078;12.878;2022-12-18T22:13:48;97644.34;;;15.93;31.85
44079;BME280;29744;49.078;12.878;2022-12-18T22:18:49;97633.13;;;15.86;31.98
44079;BME280;29744;49.078;12.878;2022-12-18T22:23:53;97623.22;;;15.82;31.76
44079;BME280;29744;49.078;12.878;2022-12-18T22:28:54;97622.00;;;15.74;31.99
44079;BME280;29744;49.078;12.878;2022-12-18T22:34:13;97611.59;;;15.67;31.46
44079;BME280;29744;49.078;12.878;2022-12-18T22:39:21;97598.16;;;15.62;31.67
44079;BME280;29744;49.078;12.878;2022-12-18T22:44:25;97582.34;;;15.56;32.09
44079;BME280;29744;49.078;12.878;2022-12-18T22:49:25;97592.47;;;15.50;31.92
44079;BME280;29744;49.078;12.878;2022-12-18T22:54:26;97607.19;;;15.44;32.18
44079;BME280;29744;49.078;12.878;2022-12-18T22:59:26;97592.69;;;15.40;31.67
44079;BME280;29744;49.078;12.878;2022-12-18T23:04:26;97600.09;;;15.34;31.96
44079;BME280;29744;49.078;12.878;2022-12-18T23:09:27;97592.38;;;15.28;31.67
44079;BME280;29744;49.078;12.878;2022-12-18T23:14:30;97604.09;;;15.23;32.20
44079;BME280;29744;49.078;12.878;2022-12-18T23:19:30;97595.28;;;15.18;32.32
44079;BME280;29744;49.078;12.878;2022-12-18T23:24:31;97587.56;;;15.11;32.14
44079;BME280;29744;49.078;12.878;2022-12-18T23:29:31;97578.47;;;15.07;32.16
44079;BME280;29744;49.078;12.878;2022-12-18T23:34:31;97589.88;;;15.04;32.05
44079;BME280;29744;49.078;12.878;2022-12-18T23:39:31;97575.91;;;14.97;32.15
44079;BME280;29744;49.078;12.878;2022-12-18T23:44:32;97578.72;;;14.92;32.60
44079;BME280;29744;49.078;12.878;2022-12-18T23:49:33;97566.09;;;14.87;32.14
44079;BME280;29744;49.078;12.878;2022-12-18T23:54:33;97556.19;;;14.82;32.02
44079;BME280;29744;49.078;12.878;2022-12-18T23:59:33;97561.69;;;14.77;32.28
